Ride Results

Sparkler Open Ride (01-09-2012)
Ride distance: 80.0 km

Outcomes - Sparkler Open Ride (01-09-2012)
Division No. of Entries Retired / DNE Completed Withdrawn Ineligible V/O Percentage Completed
HW 18 - 14 1 1 2 77.78%
MW 16 - 13 - - 3 81.25%
LW 18 - 13 1 - 4 72.22%
JN 17 - 14 2 - 1 82.35%
Totals 69 - 54 4 1 10 78.26%
Results - Sparkler Open Ride (01-09-2012)
No. Rider Horse Place Time Leg Speeds Total
Km/Hr
H/R bpm
Heavyweight
36 Chris Nichols Bashan Memphis 1 5:22:00 15.8, 14.0 14.91 39, 44, 48 (Avg:46)
46 Gregg Fields Cameo Inniskerry 2 (BC) 5:31:00 15.7, 13.4 14.50 29, 51, 51 (Avg:51)
40 Allyson Taylor Bonnie Downs Aisha 3 6:00:00 14.8, 12.1 13.33 38, 51, 48 (Avg:49)
62 Michael Shaw Midu Nemisis 4 6:12:00 12.3, 13.5 12.90 38, 42, 47 (Avg:44)
60 Craig Bond Bonds Addiction 5 6:42:00 12.2, 11.6 11.94 34, 42, 47 (Avg:44)
24 Helen Moore Summer Park Douglas Explorer 6 6:44:00 12.1, 11.6 11.88 36, 45, 49 (Avg:47)
37 Diane Howard Fox Brush Custom Design 7 6:50:00 11.6, 11.7 11.71 36, 46, 54 (Avg:50)
27 Robyn Pembroke Mt Eerwah Silver Arafina 8 6:57:00 12.2, 10.8 11.51 27, 33, 37 (Avg:35)
9 Vern Berry Splitters Creek Watch the Tempo 9 6:58:00 12.2, 10.8 11.48 26, 38, 49 (Avg:43)
20 Steph Tulk Splendacrest Zafire 10 7:11:00 11.4, 10.8 11.14 33, 38, 51 (Avg:44)
15 Troy Butler Credo Summer Rain 11 7:58:00 10.6, 9.5 10.04 30, 38, 47 (Avg:42)
13 Shane Butler Yanbu Hakeem 11 7:58:00 10.6, 9.5 10.04 35, 42, 46 (Avg:44)
67 Ben Herbert Jay 13 8:14:00 11.4, 8.4 9.72 42, 46, 54 (Avg:50)
14 Jaime Mansbridge Shannonwood Y-Shine 13 8:14:00 10.7, 8.8 9.72 39, 50, 49 (Avg:49)
49 Kathryn Priol Kalkadoon Lucifer Heart Rate L2 0:00:00 16.1, 12.6 - 45, 48, 65 (Avg:56)
23 Chris Sharrock Rowallan Kasar Disqualified L1 0:00:00 12.1 - 48, 47 (Avg:47)
61 Colleen Shaw Mt Eerwah Shazaam Widthdrawn L1 0:00:00 - - 42, 45 (Avg:45)
11 Anthony Wolgast Bellarine Cee Tee Lame L1 0:00:00 12.2 - 28, 47 (Avg:47)
Middleweight
1 Ken Moir Cameo Helmzman 1 (BC) 4:50:00 15.8, 17.2 16.55 32, 41, 48 (Avg:44)
45 Jacinta Stubbings Ffire Storm 2 5:13:00 15.8, 14.8 15.34 40, 46, 51 (Avg:48)
30 Akhmed Pshunov Ceona Citation 3 5:15:00 14.9, 15.4 15.24 32, 42, 49 (Avg:45)
58 Errol Watt Yul-Arai Hassan 4 5:56:00 14.8, 12.3 13.48 34, 44, 47 (Avg:45)
7 Lynne Drinkwater Midu Magella 5 6:12:00 12.8, 12.9 12.90 27, 39, 46 (Avg:42)
69 Casey Risson Millcreek Madrigal 6 6:43:00 10.6, 13.4 11.91 33, 54, 51 (Avg:52)
38 Laura Axsentieff Mt Tawonga Tranquil 7 6:50:00 11.6, 11.7 11.71 37, 48, 52 (Avg:50)
25 Sean Crew Linslea Park Sir Lancelot 8 6:57:00 12.2, 10.8 11.51 42, 42, 43 (Avg:42)
26 Danielle Cullen Agape SamuElla Australis 8 6:57:00 12.2, 10.8 11.51 28, 37, 41 (Avg:39)
68 Ruth White Alamo Minelli 10 7:06:00 12.3, 10.3 11.27 33, 47, 48 (Avg:47)
2 Stephen Gray Shaw Park Sweet Affair 11 8:02:00 10.5, 9.4 9.96 32, 44, 50 (Avg:47)
6 Rebecca Holland Milady Mercury 12 8:14:00 11.0, 8.6 9.72 35, 46, 54 (Avg:50)
5 Sarah Love Fun 4 Us 12 8:14:00 11.0, 8.6 9.72 36, 41, 47 (Avg:44)
29 Matthew Sample A'Landell Intent Lame L2 0:00:00 16.2, 17.3 - 35, 48, 53 (Avg:50)
65 Gabriel Ramos Kevisan Park Cascade Lame L1 0:00:00 12.3 - 38, 39 (Avg:39)
43 Liz Terry Dardanga Fingal Lame L1 0:00:00 14.9 - 36, 46 (Avg:46)
Lightweight
52 Jess Capek Emac 1 3:54:00 19.0, 22.2 20.51 38, 40, 45 (Avg:42)
64 Judy Battams Sommariva Macho Man 2 (BC) 4:24:00 19.0, 17.3 18.18 40, 44, 47 (Avg:45)
48 Bobbi Lochtenberg Matta Mia Dayman 3 5:14:00 15.9, 14.6 15.29 35, 43, 43 (Avg:43)
44 Leigh Rich Leondon Maritz 3 5:14:00 15.9, 14.6 15.29 30, 47, 44 (Avg:45)
4 Jocelyn Barnes Trinity 5 5:14:30 15.2, 15.2 15.26 44, 45, 46 (Avg:45)
47 Karen Fields Ra-Anji Firefly 6 5:31:00 15.7, 13.4 14.50 32, 41, 43 (Avg:42)
41 Amanda Phillips Kalkadoon Vienna 7 6:12:00 13.5, 12.3 12.90 34, 50, 49 (Avg:49)
56 Kaylea Maher Far Q Deutz 8 6:49:00 11.5, 11.8 11.74 36, 42, 52 (Avg:47)
12 Sonya Ryan Kholonial Amigo 8 6:49:00 13.5, 10.3 11.74 32, 48, 49 (Avg:48)
39 Sally Genninges Toad 10 6:58:00 12.0, 10.9 11.48 41, 47, 50 (Avg:48)
59 Janelle Taylor Calico Jarkamarn 11 7:08:00 11.9, 10.5 11.21 35, 40, 41 (Avg:40)
8 Amanda Powell Summit Park Raz 12 7:47:00 11.6, 9.1 10.28 31, 40, 40 (Avg:40)
3 Leeanne Morgan Zanes Shadow 13 8:02:00 10.5, 9.4 9.96 30, 36, 54 (Avg:45)
22 Fiona Fenech Bellarine Amigo Lame L2 0:00:00 2.8, 2.7 - 28, 42, 33 (Avg:37)
10 Linda Lochtenberg Matta Mia A Latte Lame L2 0:00:00 11.9, 10.5 - 39, 49, 56 (Avg:52)
63 Karen Brown Lily Lame L1 0:00:00 11.9 - 35, 48 (Avg:48)
21 Robin Young Melawondi Lame L1 0:00:00 10.7 - 36, 36 (Avg:36)
50 Jeanna Maher Red Gum Trinket Widthdrawn P/R 0:00:00 - - -
Junior
55 Lainie Zischke Atticus 1 (BC) 4:16:00 19.0, 18.4 18.75 32, 43, 46 (Avg:44)
42 Hannah Terry Sasam 2 5:56:30 14.9, 12.2 13.46 32, 45, 44 (Avg:44)
57 Emily Brandenburg Elite Viva 3 6:45:00 11.2, 12.5 11.85 36, 43, 51 (Avg:47)
32 Tayla Hadzi Sample Park Zachary 4 6:56:00 11.3, 11.7 11.54 33, 40, 40 (Avg:40)
31 Sarah Huddleston Anglesea Tasman 4 6:56:00 11.3, 11.7 11.54 36, 42, 43 (Avg:42)
33 Megan Stehouwer Manana Gaylord 4 6:56:00 11.3, 11.7 11.54 36, 41, 44 (Avg:42)
35 Christina Simpson Agape Evezra 7 6:58:00 12.2, 10.8 11.48 36, 40, 54 (Avg:47)
34 Mel Simpson Storm 7 6:58:00 12.2, 10.8 11.48 33, 41, 48 (Avg:44)
16 Ellie Kreicbergs-Prenzler Woomera Thor 9 7:11:00 11.4, 10.8 11.14 34, 41, 46 (Avg:43)
51 Jess Kuhn Riverdance Tigerlily 9 7:11:00 11.4, 10.8 11.14 42, 49, 52 (Avg:50)
66 Alissa Woods Bacchante Silver Lace 9 7:11:00 11.4, 10.8 11.14 35, 40, 52 (Avg:46)
18 Pandora Bevan Splendacrest Ulysses 12 7:25:00 11.1, 10.4 10.79 32, 38, 44 (Avg:41)
19 Jess Fuhlbohm Glenewan Spring 12 7:25:00 11.1, 10.4 10.79 41, 50, 56 (Avg:53)
54 Brooke Marshall Meltharina Maralyc 14 8:14:00 11.9, 8.1 9.72 30, 37, 45 (Avg:41)
28 David Anderson Jnr Reece Lame L2 0:00:00 17.3, 16.4 - 36, 47, 53 (Avg:50)
53 Jade Vergis Meltharina Melina Widthdrawn L2 0:00:00 - - 34, 46, 48 (Avg:47)
17 Tahlia Franke Jezabelle Oceans Of Fire Widthdrawn L1 0:00:00 - - 42, 49 (Avg:49)